createdAt,value
2019-03-17T00:00:13.444Z,7.21
2019-03-17T00:02:41.911Z,7.22
2019-03-17T00:05:11.821Z,7.21
2019-03-17T00:07:40.949Z,7.23
2019-03-17T00:10:09.533Z,7.23
2019-03-17T00:12:38.116Z,7.25
2019-03-17T00:15:07.225Z,7.26
2019-03-17T00:17:35.715Z,7.28
2019-03-17T00:20:08.386Z,7.29
2019-03-17T00:22:36.857Z,7.29
2019-03-17T00:25:09.475Z,7.30
2019-03-17T00:27:36.617Z,7.32
2019-03-17T00:30:10.653Z,7.34
2019-03-17T00:32:39.123Z,7.34
2019-03-17T00:35:07.805Z,7.37
2019-03-17T00:37:36.315Z,7.37
2019-03-17T00:40:07.250Z,7.38
2019-03-17T00:42:36.225Z,7.39
2019-03-17T00:45:06.832Z,7.39
2019-03-17T00:47:35.288Z,7.40
2019-03-17T00:50:09.442Z,7.40
2019-03-17T00:52:38.427Z,7.40
2019-03-17T00:55:07.327Z,7.40
2019-03-17T00:57:35.872Z,7.40
2019-03-17T01:00:10.998Z,7.41
2019-03-17T01:02:39.531Z,7.41
2019-03-17T01:05:08.230Z,7.41
2019-03-17T01:07:36.693Z,7.42
2019-03-17T01:10:07.577Z,7.42
2019-03-17T01:12:36.159Z,7.44
2019-03-17T01:15:06.476Z,7.43
2019-03-17T01:17:34.938Z,7.44
2019-03-17T01:20:04.046Z,7.41
2019-03-17T01:22:32.527Z,7.39
2019-03-17T01:25:01.278Z,7.35
2019-03-17T01:27:29.938Z,7.33
2019-03-17T01:29:58.411Z,7.31
2019-03-17T01:32:26.895Z,7.30
2019-03-17T01:35:08.148Z,7.29
2019-03-17T01:37:25.700Z,7.27
2019-03-17T01:39:54.189Z,7.29
2019-03-17T01:42:22.804Z,7.27
2019-03-17T01:44:51.262Z,7.25
2019-03-17T01:47:19.744Z,7.23
2019-03-17T01:49:48.364Z,7.21
2019-03-17T01:52:16.829Z,7.22
2019-03-17T01:54:45.602Z,7.24
2019-03-17T01:57:14.148Z,7.27
2019-03-17T01:59:42.660Z,7.29
2019-03-17T02:02:11.239Z,7.29
2019-03-17T02:04:45.824Z,7.30
2019-03-17T02:07:16.325Z,7.33
2019-03-17T02:09:44.861Z,7.36
2019-03-17T02:12:13.409Z,7.36
2019-03-17T02:14:41.851Z,7.38
2019-03-17T02:17:10.414Z,7.40
2019-03-17T02:19:38.912Z,7.41
2019-03-17T02:22:07.444Z,7.42
2019-03-17T02:24:35.899Z,7.42
2019-03-17T02:27:04.651Z,7.43
2019-03-17T02:29:33.116Z,7.42
2019-03-17T02:32:01.578Z,7.43
2019-03-17T02:34:30.258Z,7.44
2019-03-17T02:36:58.707Z,7.46
2019-03-17T02:39:27.265Z,7.45
2019-03-17T02:41:55.845Z,7.44
2019-03-17T02:44:24.406Z,7.44
2019-03-17T02:46:52.863Z,7.42
2019-03-17T02:49:21.429Z,7.41
2019-03-17T02:51:49.898Z,7.39
2019-03-17T02:54:18.362Z,7.38
2019-03-17T02:56:46.998Z,7.37
2019-03-17T02:59:15.578Z,7.34
2019-03-17T03:01:44.042Z,7.31
2019-03-17T03:04:12.750Z,7.29
2019-03-17T03:06:42.217Z,7.23
2019-03-17T03:09:11.689Z,7.17
2019-03-17T03:11:41.252Z,7.12
2019-03-17T03:14:09.849Z,7.09
2019-03-17T03:16:38.331Z,7.09
2019-03-17T03:19:07.051Z,7.08
2019-03-17T03:21:35.608Z,7.06
2019-03-17T03:24:04.061Z,7.09
2019-03-17T03:26:32.577Z,7.10
2019-03-17T03:29:01.138Z,7.12
2019-03-17T03:31:29.590Z,7.12
2019-03-17T03:33:58.159Z,7.13
2019-03-17T03:36:26.612Z,7.15
2019-03-17T03:38:55.093Z,7.15
2019-03-17T03:41:23.841Z,7.16
2019-03-17T03:43:52.364Z,7.15
2019-03-17T03:46:20.807Z,7.13
2019-03-17T03:48:49.548Z,7.13
2019-03-17T03:51:18.093Z,7.13
2019-03-17T03:53:46.553Z,7.14
2019-03-17T03:56:16.219Z,7.15
2019-03-17T03:58:46.427Z,7.13
2019-03-17T04:01:14.965Z,7.11
2019-03-17T04:03:43.503Z,7.04
2019-03-17T04:06:25.608Z,6.97
2019-03-17T04:08:42.226Z,6.90
2019-03-17T04:11:10.866Z,6.80
2019-03-17T04:13:39.303Z,6.71
2019-03-17T04:16:07.765Z,6.63
2019-03-17T04:18:36.300Z,6.59
2019-03-17T04:21:04.827Z,6.54
2019-03-17T04:23:33.298Z,6.50
2019-03-17T04:26:01.855Z,6.45
2019-03-17T04:28:30.321Z,6.41
2019-03-17T04:30:58.892Z,6.34
2019-03-17T04:33:27.660Z,6.28
2019-03-17T04:35:56.128Z,6.19
2019-03-17T04:38:25.594Z,6.14
2019-03-17T04:40:55.587Z,6.06
2019-03-17T04:43:24.068Z,5.99
2019-03-17T04:45:52.567Z,5.92
2019-03-17T04:48:21.234Z,5.84
2019-03-17T04:50:49.773Z,5.78
2019-03-17T04:53:18.332Z,5.73
2019-03-17T04:55:47.002Z,5.69
2019-03-17T04:58:15.559Z,5.65
2019-03-17T05:00:44.864Z,5.65
2019-03-17T05:03:13.478Z,5.64
2019-03-17T05:05:41.999Z,5.64
2019-03-17T05:08:10.480Z,5.62
2019-03-17T05:10:39.020Z,5.61
2019-03-17T05:13:07.498Z,5.60
2019-03-17T05:15:36.038Z,5.60
2019-03-17T05:18:05.493Z,5.60
2019-03-17T05:20:33.954Z,5.60
2019-03-17T05:23:02.424Z,5.60
2019-03-17T05:25:31.077Z,5.57
2019-03-17T05:27:59.539Z,5.59
2019-03-17T05:30:28.031Z,5.59
2019-03-17T05:32:56.641Z,5.60
2019-03-17T05:35:25.112Z,5.62
2019-03-17T05:37:53.588Z,5.62
2019-03-17T05:40:22.135Z,5.62
2019-03-17T05:42:50.597Z,5.62
2019-03-17T05:45:19.070Z,5.63
2019-03-17T05:47:47.677Z,5.63
2019-03-17T05:50:16.279Z,5.65
2019-03-17T05:52:44.751Z,5.65
2019-03-17T05:55:13.283Z,5.68
2019-03-17T05:57:41.746Z,5.72
2019-03-17T06:00:13.320Z,5.76
2019-03-17T06:02:42.057Z,5.84
2019-03-17T06:05:10.781Z,5.93
2019-03-17T06:07:39.302Z,6.03
2019-03-17T06:10:08.839Z,6.11
2019-03-17T06:12:37.405Z,6.18
2019-03-17T06:15:11.233Z,6.30
2019-03-17T06:17:39.830Z,6.41
2019-03-17T06:20:11.058Z,6.52
2019-03-17T06:22:39.585Z,6.65
2019-03-17T06:25:10.304Z,6.79
2019-03-17T06:27:38.783Z,6.90
2019-03-17T06:30:10.698Z,6.99
2019-03-17T06:32:39.333Z,7.07
2019-03-17T06:35:07.954Z,7.12
2019-03-17T06:37:37.371Z,7.15
2019-03-17T06:40:11.766Z,7.18
2019-03-17T06:42:40.219Z,7.20
2019-03-17T06:45:10.743Z,7.22
2019-03-17T06:47:40.889Z,7.23
2019-03-17T06:50:14.287Z,7.27
2019-03-17T06:52:42.974Z,7.28
2019-03-17T06:55:18.473Z,7.30
2019-03-17T06:57:47.244Z,7.33
2019-03-17T07:00:16.128Z,7.36
2019-03-17T07:02:44.575Z,7.40
2019-03-17T07:05:13.451Z,7.44
2019-03-17T07:07:44.384Z,7.52
2019-03-17T07:10:13.145Z,7.62
2019-03-17T07:12:41.824Z,7.73
2019-03-17T07:15:11.617Z,7.83
2019-03-17T07:17:40.159Z,7.95
2019-03-17T07:20:13.654Z,8.06
2019-03-17T07:22:42.188Z,8.18
2019-03-17T07:25:10.795Z,8.26
2019-03-17T07:27:39.380Z,8.30
2019-03-17T07:30:14.777Z,8.37
2019-03-17T07:32:43.408Z,8.43
2019-03-17T07:35:12.068Z,8.54
2019-03-17T07:37:40.534Z,8.70
2019-03-17T07:40:12.011Z,8.86
2019-03-17T07:42:40.614Z,9.03
2019-03-17T07:45:10.863Z,9.23
2019-03-17T07:47:39.335Z,9.41
2019-03-17T07:50:13.253Z,9.52
2019-03-17T07:52:42.694Z,9.66
2019-03-17T07:55:11.475Z,9.81
2019-03-17T07:57:40.060Z,9.99
2019-03-17T08:00:11.401Z,10.11
2019-03-17T08:02:39.942Z,10.24
2019-03-17T08:05:09.997Z,10.31
2019-03-17T08:07:38.647Z,10.36
2019-03-17T08:10:13.305Z,10.38
2019-03-17T08:12:41.912Z,10.42
2019-03-17T08:15:12.138Z,10.42
2019-03-17T08:17:40.691Z,10.45
2019-03-17T08:20:10.669Z,10.49
2019-03-17T08:22:39.199Z,10.55
2019-03-17T08:25:10.035Z,10.65
2019-03-17T08:27:38.636Z,10.75
2019-03-17T08:30:14.965Z,10.88
2019-03-17T08:32:43.482Z,11.00
2019-03-17T08:35:12.478Z,11.16
2019-03-17T08:37:40.933Z,11.27
2019-03-17T08:40:12.237Z,11.39
2019-03-17T08:42:40.822Z,11.54
2019-03-17T08:45:11.465Z,11.65
2019-03-17T08:47:39.993Z,11.78
2019-03-17T08:50:13.037Z,11.86
2019-03-17T08:52:41.525Z,11.95
2019-03-17T08:55:11.147Z,12.08
2019-03-17T08:57:39.837Z,12.20
2019-03-17T09:00:11.415Z,12.32
2019-03-17T09:02:39.888Z,12.41
2019-03-17T09:05:08.842Z,12.55
2019-03-17T09:07:37.281Z,12.71
2019-03-17T09:10:14.595Z,12.86
2019-03-17T09:12:43.054Z,12.99
2019-03-17T09:15:11.792Z,13.09
2019-03-17T09:17:40.396Z,13.17
2019-03-17T09:20:13.884Z,13.24
2019-03-17T09:22:42.435Z,13.32
2019-03-17T09:25:11.659Z,13.39
2019-03-17T09:27:40.375Z,13.54
2019-03-17T09:30:18.793Z,13.61
2019-03-17T09:32:47.917Z,13.75
2019-03-17T09:35:16.383Z,13.88
2019-03-17T09:37:45.134Z,13.93
2019-03-17T09:40:17.387Z,13.99
2019-03-17T09:42:45.954Z,14.03
2019-03-17T09:45:15.455Z,14.11
2019-03-17T09:47:44.000Z,14.23
2019-03-17T09:50:17.697Z,14.26
2019-03-17T09:52:47.305Z,14.38
2019-03-17T09:55:15.770Z,14.49
2019-03-17T09:57:44.427Z,14.54
2019-03-17T10:00:19.110Z,14.66
2019-03-17T10:02:47.641Z,14.78
2019-03-17T10:05:16.230Z,14.91
2019-03-17T10:07:44.852Z,15.02
2019-03-17T10:10:24.306Z,15.12
2019-03-17T10:12:53.752Z,15.17
2019-03-17T10:15:22.274Z,15.33
2019-03-17T10:17:50.823Z,15.43
2019-03-17T10:20:20.338Z,15.50
2019-03-17T10:22:49.029Z,15.58
2019-03-17T10:25:17.632Z,15.72
2019-03-17T10:27:46.300Z,15.86
2019-03-17T10:30:17.828Z,15.98
2019-03-17T10:32:47.187Z,16.12
2019-03-17T10:35:15.805Z,16.29
2019-03-17T10:37:44.522Z,16.45
2019-03-17T10:40:16.865Z,16.52
2019-03-17T10:42:45.515Z,16.58
2019-03-17T10:45:14.513Z,16.65
2019-03-17T10:47:43.049Z,16.77
2019-03-17T10:50:14.028Z,16.95
2019-03-17T10:52:42.564Z,16.94
2019-03-17T10:55:11.980Z,16.97
2019-03-17T10:57:40.613Z,17.06
2019-03-17T11:00:16.854Z,17.15
2019-03-17T11:02:45.492Z,17.21
2019-03-17T11:05:14.191Z,17.25
2019-03-17T11:07:42.725Z,17.31
2019-03-17T11:10:12.420Z,17.40
2019-03-17T11:12:40.875Z,17.47
2019-03-17T11:15:13.504Z,17.46
2019-03-17T11:17:42.039Z,17.48
2019-03-17T11:20:12.211Z,17.55
2019-03-17T11:22:41.067Z,17.63
2019-03-17T11:25:16.730Z,17.86
2019-03-17T11:27:45.193Z,18.03
2019-03-17T11:30:15.291Z,18.20
2019-03-17T11:32:43.820Z,18.43
2019-03-17T11:35:12.570Z,18.55
2019-03-17T11:37:41.158Z,18.73
2019-03-17T11:40:22.087Z,18.80
2019-03-17T11:42:51.057Z,18.97
2019-03-17T11:45:19.510Z,19.11
2019-03-17T11:47:48.733Z,19.49
2019-03-17T11:50:21.680Z,19.82
2019-03-17T11:52:50.888Z,20.44
2019-03-17T11:55:19.588Z,21.34
2019-03-17T11:57:48.490Z,21.88
2019-03-17T12:00:22.138Z,21.69
2019-03-17T12:02:50.602Z,21.65
2019-03-17T12:05:19.231Z,21.56
2019-03-17T12:07:47.697Z,21.34
2019-03-17T12:10:24.113Z,21.24
2019-03-17T12:12:52.657Z,21.61
2019-03-17T12:15:23.787Z,21.83
2019-03-17T12:17:52.490Z,22.38
2019-03-17T12:20:21.223Z,22.87
2019-03-17T12:22:49.749Z,23.51
2019-03-17T12:25:19.052Z,24.10
2019-03-17T12:27:48.010Z,24.39
2019-03-17T12:30:23.923Z,24.52
2019-03-17T12:32:53.138Z,24.16
2019-03-17T12:35:22.229Z,24.14
2019-03-17T12:37:50.758Z,24.52
2019-03-17T12:40:19.299Z,24.28
2019-03-17T12:42:47.955Z,24.68
2019-03-17T12:45:16.485Z,24.99
2019-03-17T12:47:44.955Z,24.86
2019-03-17T12:50:21.485Z,25.22
2019-03-17T12:52:50.025Z,25.54
2019-03-17T12:55:18.551Z,25.70
2019-03-17T12:57:47.342Z,25.55
2019-03-17T13:00:20.363Z,25.57
2019-03-17T13:02:48.822Z,25.87
2019-03-17T13:05:17.509Z,25.80
2019-03-17T13:07:46.040Z,25.58
2019-03-17T13:10:21.938Z,25.37
2019-03-17T13:12:50.512Z,25.15
2019-03-17T13:15:19.051Z,25.19
2019-03-17T13:17:47.587Z,24.82
2019-03-17T13:20:21.125Z,24.39
2019-03-17T13:22:49.886Z,24.23
2019-03-17T13:25:18.342Z,24.35
2019-03-17T13:27:47.005Z,24.15
2019-03-17T13:30:16.570Z,23.66
2019-03-17T13:32:45.099Z,23.63
2019-03-17T13:35:13.941Z,23.16
2019-03-17T13:37:42.696Z,23.31
2019-03-17T13:40:28.931Z,23.29
2019-03-17T13:42:49.419Z,23.57
2019-03-17T13:45:17.911Z,24.09
2019-03-17T13:47:46.525Z,24.36
2019-03-17T13:50:23.482Z,24.54
2019-03-17T13:52:52.131Z,25.28
2019-03-17T13:55:21.594Z,25.81
2019-03-17T13:58:01.364Z,25.71
2019-03-17T14:00:29.923Z,25.53
2019-03-17T14:02:58.433Z,25.74
2019-03-17T14:05:27.126Z,25.63
2019-03-17T14:07:55.579Z,25.63
2019-03-17T14:10:24.112Z,25.93
2019-03-17T14:12:52.673Z,26.35
2019-03-17T14:15:22.157Z,26.52
2019-03-17T14:17:50.676Z,26.96
2019-03-17T14:20:21.090Z,27.14
2019-03-17T14:22:49.978Z,26.85
2019-03-17T14:25:29.435Z,26.62
2019-03-17T14:28:00.695Z,26.83
2019-03-17T14:30:29.336Z,26.95
2019-03-17T14:32:57.958Z,27.06
2019-03-17T14:35:27.605Z,27.38
2019-03-17T14:37:56.219Z,27.25
2019-03-17T14:40:24.763Z,27.37
2019-03-17T14:42:55.364Z,26.67
2019-03-17T14:45:23.644Z,27.01
2019-03-17T14:47:52.423Z,26.53
2019-03-17T14:50:22.014Z,26.74
2019-03-17T14:52:50.524Z,25.99
2019-03-17T14:55:19.236Z,26.17
2019-03-17T14:57:47.771Z,25.69
2019-03-17T15:00:18.717Z,26.37
2019-03-17T15:02:47.406Z,26.72
2019-03-17T15:05:16.136Z,27.09
2019-03-17T15:07:44.677Z,27.71
2019-03-17T15:10:19.952Z,27.86
2019-03-17T15:12:48.564Z,27.85
2019-03-17T15:15:21.338Z,27.61
2019-03-17T15:17:50.142Z,27.50
2019-03-17T15:20:27.664Z,27.24
2019-03-17T15:22:56.762Z,27.03
2019-03-17T15:25:25.308Z,27.25
2019-03-17T15:27:53.764Z,26.83
2019-03-17T15:30:29.435Z,26.89
2019-03-17T15:32:58.074Z,26.49
2019-03-17T15:35:26.611Z,25.92
2019-03-17T15:37:55.226Z,25.62
2019-03-17T15:40:23.684Z,25.56
2019-03-17T15:42:52.175Z,25.36
2019-03-17T15:45:25.592Z,25.33
2019-03-17T15:47:54.286Z,25.31
2019-03-17T15:50:25.100Z,23.98
2019-03-17T15:52:54.658Z,23.45
2019-03-17T15:55:23.291Z,21.91
2019-03-17T15:57:51.752Z,20.94
2019-03-17T16:00:25.548Z,20.15
2019-03-17T16:02:51.759Z,19.77
2019-03-17T16:05:20.313Z,19.57
2019-03-17T16:07:49.159Z,19.42
2019-03-17T16:10:29.083Z,19.56
2019-03-17T16:12:57.745Z,19.34
2019-03-17T16:15:26.307Z,19.36
2019-03-17T16:17:54.776Z,19.17
2019-03-17T16:20:24.319Z,18.83
2019-03-17T16:22:52.880Z,18.36
2019-03-17T16:25:38.519Z,18.14
2019-03-17T16:28:06.992Z,17.98
2019-03-17T16:30:35.566Z,17.76
2019-03-17T16:33:04.686Z,17.57
2019-03-17T16:35:33.222Z,17.36
2019-03-17T16:38:01.854Z,17.20
2019-03-17T16:40:34.745Z,17.10
2019-03-17T16:43:03.524Z,17.00
2019-03-17T16:45:32.148Z,16.92
2019-03-17T16:48:00.627Z,16.85
2019-03-17T16:50:29.093Z,16.68
2019-03-17T16:52:57.650Z,16.52
2019-03-17T16:55:26.247Z,16.38
2019-03-17T16:57:54.783Z,16.28
2019-03-17T17:00:24.609Z,16.13
2019-03-17T17:02:53.253Z,16.21
2019-03-17T17:05:26.329Z,16.16
2019-03-17T17:07:54.994Z,16.19
2019-03-17T17:10:27.803Z,16.29
2019-03-17T17:12:56.392Z,16.26
2019-03-17T17:15:27.157Z,16.24
2019-03-17T17:17:55.696Z,16.16
2019-03-17T17:20:33.041Z,16.01
2019-03-17T17:23:01.504Z,15.95
2019-03-17T17:25:30.093Z,15.92
2019-03-17T17:27:58.731Z,15.90
2019-03-17T17:30:27.309Z,15.94
2019-03-17T17:32:57.244Z,16.01
2019-03-17T17:35:25.801Z,15.99
2019-03-17T17:37:55.242Z,15.91
2019-03-17T17:40:27.478Z,15.82
2019-03-17T17:42:56.081Z,15.73
2019-03-17T17:45:25.540Z,15.60
2019-03-17T17:47:54.254Z,15.47
2019-03-17T17:50:24.301Z,15.33
2019-03-17T17:52:52.862Z,15.21
2019-03-17T17:55:21.888Z,15.08
2019-03-17T17:57:52.583Z,14.88
2019-03-17T18:00:27.848Z,14.75
2019-03-17T18:02:58.652Z,14.74
2019-03-17T18:05:26.725Z,14.88
2019-03-17T18:07:55.342Z,14.93
2019-03-17T18:10:23.849Z,14.91
2019-03-17T18:12:52.313Z,14.88
2019-03-17T18:15:26.246Z,14.89
2019-03-17T18:17:54.802Z,14.93
2019-03-17T18:20:23.409Z,15.00
2019-03-17T18:22:52.970Z,15.05
2019-03-17T18:25:22.193Z,15.04
2019-03-17T18:27:50.773Z,14.97
2019-03-17T18:30:20.760Z,14.95
2019-03-17T18:32:49.285Z,15.18
2019-03-17T18:35:17.837Z,15.39
2019-03-17T18:37:46.457Z,15.26
2019-03-17T18:40:16.966Z,15.10
2019-03-17T18:42:45.596Z,15.20
2019-03-17T18:45:25.458Z,15.41
2019-03-17T18:47:53.984Z,15.54
2019-03-17T18:50:22.628Z,15.43
2019-03-17T18:52:51.406Z,14.30
2019-03-17T18:55:20.005Z,13.32
2019-03-17T18:57:48.533Z,12.74
2019-03-17T19:00:22.391Z,12.39
2019-03-17T19:02:50.705Z,12.08
2019-03-17T19:05:20.414Z,11.81
2019-03-17T19:07:51.135Z,11.63
2019-03-17T19:10:20.820Z,11.43
2019-03-17T19:12:49.416Z,11.15
2019-03-17T19:15:22.731Z,10.74
2019-03-17T19:17:52.536Z,10.38
2019-03-17T19:20:21.852Z,10.03
2019-03-17T19:22:51.288Z,9.77
2019-03-17T19:25:22.021Z,9.51
2019-03-17T19:27:50.665Z,9.29
2019-03-17T19:30:25.098Z,9.10
2019-03-17T19:32:53.610Z,9.00
2019-03-17T19:35:22.072Z,8.85
2019-03-17T19:37:51.590Z,8.65
2019-03-17T19:40:21.289Z,8.52
2019-03-17T19:42:58.591Z,8.40
2019-03-17T19:45:20.257Z,8.30
2019-03-17T19:47:48.693Z,8.22
2019-03-17T19:50:18.705Z,8.16
2019-03-17T19:52:48.951Z,8.15
2019-03-17T19:55:17.441Z,8.10
2019-03-17T19:57:45.974Z,8.06
2019-03-17T20:00:19.581Z,8.02
2019-03-17T20:02:48.171Z,7.98
2019-03-17T20:05:16.721Z,7.93
2019-03-17T20:07:45.390Z,7.90
2019-03-17T20:10:25.671Z,7.91
2019-03-17T20:12:54.355Z,7.90
2019-03-17T20:15:22.800Z,7.92
2019-03-17T20:17:51.252Z,7.95
2019-03-17T20:20:19.901Z,7.94
2019-03-17T20:22:48.353Z,7.97
2019-03-17T20:25:16.852Z,7.98
2019-03-17T20:27:45.983Z,7.96
2019-03-17T20:30:15.774Z,7.95
2019-03-17T20:32:44.304Z,7.92
2019-03-17T20:35:13.598Z,7.88
2019-03-17T20:37:42.302Z,7.83
2019-03-17T20:40:13.260Z,7.78
2019-03-17T20:42:41.839Z,7.77
2019-03-17T20:45:14.703Z,7.75
2019-03-17T20:47:43.281Z,7.69
2019-03-17T20:50:14.305Z,7.64
2019-03-17T20:52:42.848Z,7.60
2019-03-17T20:55:11.975Z,7.54
2019-03-17T20:57:40.703Z,7.51
2019-03-17T21:00:14.960Z,7.48
2019-03-17T21:02:43.411Z,7.46
2019-03-17T21:05:12.814Z,7.41
2019-03-17T21:07:41.629Z,7.33
2019-03-17T21:10:12.770Z,7.28
2019-03-17T21:12:41.325Z,7.23
2019-03-17T21:15:12.716Z,7.16
2019-03-17T21:17:41.373Z,7.12
2019-03-17T21:20:18.012Z,7.07
2019-03-17T21:22:46.474Z,7.06
2019-03-17T21:25:15.113Z,7.06
2019-03-17T21:27:45.187Z,7.02
2019-03-17T21:30:24.983Z,6.94
2019-03-17T21:32:53.448Z,6.87
2019-03-17T21:35:21.968Z,6.86
2019-03-17T21:37:50.949Z,6.83
2019-03-17T21:40:19.423Z,6.83
2019-03-17T21:42:47.944Z,6.83
2019-03-17T21:45:16.520Z,6.80
2019-03-17T21:47:45.054Z,6.79
2019-03-17T21:50:20.696Z,6.81
2019-03-17T21:52:49.307Z,6.78
2019-03-17T21:55:18.014Z,6.77
2019-03-17T21:57:46.533Z,6.75
2019-03-17T22:00:16.530Z,6.75
2019-03-17T22:02:45.006Z,6.77
2019-03-17T22:05:14.300Z,6.78
2019-03-17T22:07:49.489Z,6.78
2019-03-17T22:10:21.932Z,6.78
2019-03-17T22:12:50.574Z,6.76
2019-03-17T22:15:19.803Z,6.78
2019-03-17T22:17:48.261Z,6.80
2019-03-17T22:20:17.626Z,6.79
2019-03-17T22:22:46.241Z,6.74
2019-03-17T22:25:15.373Z,6.65
2019-03-17T22:27:43.995Z,6.59
2019-03-17T22:30:22.101Z,6.52
2019-03-17T22:32:57.542Z,6.48
2019-03-17T22:35:25.996Z,6.41
2019-03-17T22:37:54.446Z,6.39
2019-03-17T22:40:23.055Z,6.32
2019-03-17T22:42:51.532Z,6.26
2019-03-17T22:45:19.998Z,6.22
2019-03-17T22:47:53.974Z,6.19
2019-03-17T22:50:22.398Z,6.16
2019-03-17T22:52:50.913Z,6.11
2019-03-17T22:55:19.558Z,6.08
2019-03-17T22:57:48.011Z,6.05
2019-03-17T23:00:20.015Z,6.02
2019-03-17T23:02:48.580Z,5.97
2019-03-17T23:05:17.104Z,5.91
2019-03-17T23:07:45.673Z,5.88
2019-03-17T23:10:14.264Z,5.85
2019-03-17T23:12:42.944Z,5.84
2019-03-17T23:15:12.927Z,5.82
2019-03-17T23:17:41.411Z,5.78
2019-03-17T23:20:12.350Z,5.74
2019-03-17T23:22:40.875Z,5.70
2019-03-17T23:25:10.564Z,5.67
2019-03-17T23:27:39.041Z,5.65
2019-03-17T23:30:13.398Z,5.63
2019-03-17T23:32:42.067Z,5.59
2019-03-17T23:35:10.667Z,5.59
2019-03-17T23:37:39.804Z,5.58
2019-03-17T23:40:10.329Z,5.61
2019-03-17T23:42:38.786Z,5.60
2019-03-17T23:45:09.626Z,5.61
2019-03-17T23:47:38.417Z,5.63
2019-03-17T23:50:09.331Z,5.60
2019-03-17T23:52:37.931Z,5.61
2019-03-17T23:55:08.126Z,5.60
2019-03-17T23:57:36.589Z,5.60
